Aviation Digital Data Service (ADDS)

Output produced by METARs form (0201 UTC 23 April 2021)
found at http://aviationweather.gov/metar/data/
 
KVNY 222329Z 2300/2324 16010KT P6SM BKN035 
     FM230400 VRB03KT P6SM OVC035 
     FM230900 VRB03KT P6SM BKN015 OVC025 
     FM231700 15006KT P6SM BKN025 OVC035 
     FM232100 18008KT P6SM BKN040